Latest Coastal Weather Observations for Adele Island

IDW60701

Issued at 8:32 pm WST Monday 8 February 2016 (issued every 10 minutes, with the page automatically refreshed every 10 minutes)

About coastal observations | Map of coastal stations | Coastal observations for WA | Marine services | Other Formats
Station Details ID: 200735 Name: ADELE ISLAND Lat: -15.51 Lon: 123.16 Height: 4.6 m
Data from the previous 72 hours. | See also: Recent months at Adele Island
Date/Time
WST
Temp

°C
Wind Pressure Rain
since 9am
mm
Weather Cloud Vis
km
Sea
Height
m
Swell
Dir
 
Speed
knots
Gust
knots
hPa Trend Height
m
Period
s
Dir
08/08:30pm - WNW 11 13 1008.2 - - - - - - - - -
08/08:00pm - WNW 11 14 1008.0 - - - - - - - - -
08/07:30pm - WNW 9 12 1007.9 - - - - - - - - -
08/07:00pm - WNW 9 12 1007.5 - - - - - - - - -
08/06:30pm - WNW 8 11 1007.1 - - - - - - - - -
08/06:00pm - W 8 10 1006.9 - - - - - - - - -
08/05:30pm - W 9 11 1006.7 - - - - - - - - -
08/05:00pm - WNW 9 11 1006.5 - - - - - - - - -
08/04:30pm - W 9 11 1006.5 - - - - - - - - -
08/04:00pm - W 8 11 1006.5 - - - - - - - - -
08/03:30pm - W 8 10 1006.5 - - - - - - - - -
08/03:00pm - W 8 10 1006.6 - - - - - - - - -
08/02:30pm - W 8 10 1006.8 - - - - - - - - -
08/02:00pm - W 7 9 1007.0 - - - - - - - - -
08/01:30pm - WSW 8 10 1007.4 - - - - - - - - -
08/01:00pm - WSW 8 10 1007.6 - - - - - - - - -
08/12:30pm - WSW 8 10 1008.1 - - - - - - - - -
08/12:00pm - WSW 8 9 1008.5 - - - - - - - - -
08/11:30am - WSW 8 10 1008.9 - - - - - - - - -
08/11:00am - WSW 7 10 1009.1 - - - - - - - - -
08/10:30am - WSW 8 10 1009.4 - - - - - - - - -
08/10:00am - SW 7 9 1009.6 - - - - - - - - -
08/09:30am - WSW 8 9 1009.8 - - - - - - - - -
08/09:00am - SSE 5 8 1010.1 - - - - - - - - -
08/08:30am - SSE 7 10 1010.2 - - - - - - - - -
08/08:00am - S 7 8 1010.0 - - - - - - - - -
08/07:30am - S 6 7 1009.8 - - - - - - - - -
08/07:00am - SSW 3 5 1009.5 - - - - - - - - -
08/06:30am - SSW 1 2 1009.3 - - - - - - - - -
08/06:00am - SW 4 5 1009.0 - - - - - - - - -
08/05:30am - SW 6 7 1008.9 - - - - - - - - -
08/05:00am - SW 6 7 1008.6 - - - - - - - - -
08/04:30am - WSW 6 6 1008.4 - - - - - - - - -
08/04:00am - SW 6 7 1008.4 - - - - - - - - -
08/03:30am - SW 7 7 1008.2 - - - - - - - - -
08/03:00am - SW 7 8 1008.4 - - - - - - - - -
08/02:30am - WSW 6 7 1008.2 - - - - - - - - -
08/02:00am - SW 6 7 1008.6 - - - - - - - - -
08/01:30am - WSW 9 10 1008.4 - - - - - - - - -
08/01:00am - SW 9 11 1008.8 - - - - - - - - -
08/12:30am - SW 10 12 1009.1 - - - - - - - - -
08/12:00am - SW 10 13 1009.6 - - - - - - - - -
 
Date/Time
WST
Temp

°C
Wind Pressure Rain
since 9am
mm
Weather Cloud Vis
km
Sea
Height
m
Swell
Dir
 
Speed
knots
Gust
knots
hPa Trend Height
m
Period
s
Dir
07/11:30pm - SW 11 14 1010.0 - - - - - - - - -
07/11:00pm - WSW 10 13 1010.1 - - - - - - - - -
07/10:30pm - WSW 11 13 1010.1 - - - - - - - - -
07/10:00pm - WSW 10 12 1010.1 - - - - - - - - -
07/09:30pm - W 10 12 1009.9 - - - - - - - - -
07/09:00pm - W 10 13 1009.6 - - - - - - - - -
07/08:30pm - W 10 12 1009.4 - - - - - - - - -
07/08:00pm - W 8 11 1009.3 - - - - - - - - -
07/07:30pm - WSW 9 12 1008.8 - - - - - - - - -
07/07:00pm - WSW 9 11 1008.2 - - - - - - - - -
07/06:30pm - WSW 10 12 1007.8 - - - - - - - - -
07/06:00pm - WSW 9 11 1007.5 - - - - - - - - -
07/05:30pm - WSW 9 11 1007.0 - - - - - - - - -
07/05:00pm - WSW 9 11 1006.7 - - - - - - - - -
07/04:30pm - WSW 10 12 1006.4 - - - - - - - - -
07/04:00pm - WSW 10 13 1006.2 - - - - - - - - -
07/03:30pm - WSW 9 12 1006.3 - - - - - - - - -
07/03:00pm - WSW 9 12 1006.3 - - - - - - - - -
07/02:30pm - WSW 9 11 1006.6 - - - - - - - - -
07/02:00pm - W 9 11 1007.1 - - - - - - - - -
07/01:30pm - W 8 10 1007.4 - - - - - - - - -
07/01:00pm - SW 9 11 1007.8 - - - - - - - - -
07/12:30pm - SSW 10 14 1008.0 - - - - - - - - -
07/12:00pm - SW 10 14 1008.2 - - - - - - - - -
07/11:30am - SW 11 15 1008.6 - - - - - - - - -
07/11:00am - SSW 11 15 1008.5 - - - - - - - - -
07/10:30am - SW 10 14 1008.5 - - - - - - - - -
07/10:00am - WSW 10 12 1008.6 - - - - - - - - -
07/09:30am - WSW 9 11 1008.8 - - - - - - - - -
07/09:00am - SW 9 11 1008.9 - - - - - - - - -
07/08:30am - SW 9 11 1008.9 - - - - - - - - -
07/08:00am - SSW 11 13 1008.7 - - - - - - - - -
07/07:30am - S 9 11 1008.4 - - - - - - - - -
07/07:00am - S 9 11 1008.2 - - - - - - - - -
07/06:30am - SSW 8 10 1007.9 - - - - - - - - -
07/06:00am - SSW 8 9 1007.6 - - - - - - - - -
07/05:30am - SW 7 9 1007.2 - - - - - - - - -
07/05:00am - SW 9 10 1007.1 - - - - - - - - -
07/04:30am - SW 8 10 1006.8 - - - - - - - - -
07/04:00am - SW 9 11 1006.6 - - - - - - - - -
07/03:30am - SW 9 11 1006.4 - - - - - - - - -
07/03:00am - SW 10 12 1006.4 - - - - - - - - -
07/02:30am - SW 9 11 1006.4 - - - - - - - - -
07/02:00am - SW 10 12 1006.4 - - - - - - - - -
07/01:30am - SW 10 12 1006.4 - - - - - - - - -
07/01:00am - SW 11 13 1006.7 - - - - - - - - -
07/12:30am - SW 12 15 1007.0 - - - - - - - - -
07/12:00am - SW 11 15 1007.4 - - - - - - - - -
 
Date/Time
WST
Temp

°C
Wind Pressure Rain
since 9am
mm
Weather Cloud Vis
km
Sea
Height
m
Swell
Dir
 
Speed
knots
Gust
knots
hPa Trend Height
m
Period
s
Dir
06/11:30pm - WSW 11 14 1007.6 - - - - - - - - -
06/11:00pm - WSW 11 13 1007.8 - - - - - - - - -
06/10:30pm - WSW 11 14 1008.0 - - - - - - - - -
06/10:00pm - SW 13 15 1008.3 - - - - - - - - -
06/09:30pm - WSW 13 16 1008.1 - - - - - - - - -
06/09:00pm - WSW 13 15 1007.9 - - - - - - - - -
06/08:30pm - SW 12 16 1007.7 - - - - - - - - -
06/08:00pm - SW 12 14 1007.5 - - - - - - - - -
06/07:30pm - SW 13 16 1007.1 - - - - - - - - -
06/07:00pm - SW 14 17 1006.6 - - - - - - - - -
06/06:30pm - SW 14 17 1006.2 - - - - - - - - -
06/06:00pm - WSW 13 17 1005.9 - - - - - - - - -
06/05:30pm - WSW 13 17 1005.8 - - - - - - - - -
06/05:00pm - WSW 13 17 1005.6 - - - - - - - - -
06/04:30pm - WSW 13 16 1005.7 - - - - - - - - -
06/04:00pm - WSW 13 16 1005.7 - - - - - - - - -
06/03:30pm - SW 13 16 1005.6 - - - - - - - - -
06/03:00pm - WSW 13 16 1005.9 - - - - - - - - -
06/02:30pm - WSW 11 13 1006.2 - - - - - - - - -
06/02:00pm - WSW 11 13 1006.5 - - - - - - - - -
06/01:30pm - WSW 11 13 1006.9 - - - - - - - - -
06/01:00pm - WSW 11 14 1007.1 - - - - - - - - -
06/12:30pm - WSW 9 11 1007.5 - - - - - - - - -
06/12:00pm - SW 9 11 1008.1 - - - - - - - - -
06/11:30am - SW 10 13 1008.5 - - - - - - - - -
06/11:00am - SSW 11 14 1008.5 - - - - - - - - -
06/10:30am - SSW 12 15 1008.8 - - - - - - - - -
06/10:00am - SSW 11 14 1009.0 - - - - - - - - -
06/09:30am - SSW 10 13 1008.9 - - - - - - - - -
06/09:00am - ESE 5 7 1009.3 - - - - - - - - -
06/08:30am - SE 11 15 1009.4 - - - - - - - - -
06/08:00am - ESE 17 23 1009.7 - - - - - - - - -
06/07:30am - ESE 23 29 1009.9 - - - - - - - - -
06/07:28am - E 23 27 1009.9 - - - - - - - - -
06/07:00am - ENE 20 25 1009.7 - - - - - - - - -
06/06:39am - E 7 20 1009.7 - - - - - - - - -
06/06:30am - E 2 4 1009.4 - - - - - - - - -
06/06:00am - SE 17 23 1008.8 - - - - - - - - -
06/05:30am - SSW 11 15 1008.1 - - - - - - - - -
06/05:00am - WSW 11 15 1007.7 - - - - - - - - -
06/04:30am - WSW 12 14 1007.5 - - - - - - - - -
06/04:00am - WSW 12 15 1007.3 - - - - - - - - -
06/03:30am - W 11 14 1007.1 - - - - - - - - -
06/03:00am - WSW 12 15 1007.2 - - - - - - - - -
06/02:30am - WSW 13 15 1007.1 - - - - - - - - -
06/02:00am - W 11 15 1007.0 - - - - - - - - -
06/01:30am - W 9 12 1007.2 - - - - - - - - -
06/01:00am - WNW 11 13 1007.5 - - - - - - - - -
06/12:30am - W 10 13 1007.8 - - - - - - - - -
06/12:00am - W 9 12 1008.1 - - - - - - - - -
 
Date/Time
WST
Temp

°C
Wind Pressure Rain
since 9am
mm
Weather Cloud Vis
km
Sea
Height
m
Swell
Dir
 
Speed
knots
Gust
knots
hPa Trend Height
m
Period
s
Dir
05/11:30pm - W 11 13 1008.4 - - - - - - - - -
05/11:00pm - W 11 14 1008.5 - - - - - - - - -
05/10:30pm - WNW 10 12 1008.4 - - - - - - - - -
05/10:00pm - WNW 10 13 1008.4 - - - - - - - - -
05/09:30pm - WNW 11 13 1008.3 - - - - - - - - -
05/09:00pm - W 9 11 1008.3 - - - - - - - - -

Other Formats:

Comma delimited format used in spreadsheet applications
http://www.bom.gov.au/fwo/IDW60701/IDW60701.94210.axf

JavaScript Object Notation format (JSON) in row-major order
http://www.bom.gov.au/fwo/IDW60701/IDW60701.94210.json